Página principal
METAR-TAF:

METAR-TAF

Aeroportos :

Pointe-Noire, Congo

latitude: 04-49S, longitude: 011-54E, altura: 17 m

Observação actual do tempo

O boletim foi feito há 59 minutos, às 22:00 UTC
Vento 4 kt de sudoeste
Temperatura 28°C
Humidade 79%
Pressão 1013 hPa
Visibilidade 10 km ou mais
Poucas nuvensa uma altura de 1000 ft

METAR: FCPP 202200Z 23004KT 9999 FEW010 28/24 Q1013 NOSIG

Hora: 23:59 (22:59 UTC)

Previsão

O boletim foi feito há 5 horas e 59 minutos, às 17:00 UTC
Previsão válida de 20 às 18 UTC a 21 às 18 UTC
Vento 8 kt de sul
Visibilidade: 8000 m
Nuvens dispersasa uma altura de 1300 ft
Tornando-se
de 21 às 12 UTC a 21 às 14 UTC
Nuvens dispersasa uma altura de 1600 ft
Poucas nuvensa uma altura de 3000 ft, Cumulonimbus.

TAF: FCPP 201700Z 2018/2118 19008KT 8000 SCT013 BECMG 2112/2114 SCT016 FEW030CB

Observações e previsões do tempo de mais de 4000 aeroportos (mensagens METAR e TAF).

As estações disponíveis são os pontos amarelos e vermelhos sobre o mapa.

Mova o rato sobre o mapa para ver o nome da estação.

Depois clique no ponto para visualizar as observações e previsões meteorológicas.

Para alterar o mapa : clique nos botões verdes com uma cruz preta para aumentar o zoom; no botão verde com uma pitada de zoom; ou nas setas verdes para mapas adjacentes.


METAR-TAF: